sensor_id;sensor_type;location;lat;lon;timestamp;P1;durP1;ratioP1;P2;durP2;ratioP2
63114;SDS011;49208;50.874;6.466;2023-02-22T07:03:38;13.63;;;7.20;;
63114;SDS011;49208;50.874;6.466;2023-02-22T07:06:05;16.88;;;8.52;;
63114;SDS011;49208;50.874;6.466;2023-02-22T07:10:57;19.45;;;8.18;;
63114;SDS011;49208;50.874;6.466;2023-02-22T07:13:22;15.82;;;8.50;;
63114;SDS011;49208;50.874;6.466;2023-02-22T07:15:47;18.67;;;8.68;;
63114;SDS011;49208;50.874;6.466;2023-02-22T07:18:13;19.60;;;8.52;;
63114;SDS011;49208;50.874;6.466;2023-02-22T07:20:40;14.77;;;8.10;;
63114;SDS011;49208;50.874;6.466;2023-02-22T07:23:05;17.50;;;8.68;;
63114;SDS011;49208;50.874;6.466;2023-02-22T07:25:31;18.45;;;9.80;;
63114;SDS011;49208;50.874;6.466;2023-02-22T07:27:56;19.42;;;9.55;;
63114;SDS011;49208;50.874;6.466;2023-02-22T07:32:54;16.67;;;8.88;;
63114;SDS011;49208;50.874;6.466;2023-02-22T07:35:23;17.00;;;8.35;;
63114;SDS011;49208;50.874;6.466;2023-02-22T07:37:53;20.92;;;9.48;;
63114;SDS011;49208;50.874;6.466;2023-02-22T07:40:19;16.05;;;7.93;;
63114;SDS011;49208;50.874;6.466;2023-02-22T07:42:55;13.57;;;8.18;;
63114;SDS011;49208;50.874;6.466;2023-02-22T07:45:23;15.07;;;8.65;;
63114;SDS011;49208;50.874;6.466;2023-02-22T07:47:50;18.08;;;7.38;;
63114;SDS011;49208;50.874;6.466;2023-02-22T07:50:16;22.73;;;8.85;;
63114;SDS011;49208;50.874;6.466;2023-02-22T07:52:46;14.80;;;7.18;;
63114;SDS011;49208;50.874;6.466;2023-02-22T07:55:14;15.98;;;7.80;;
63114;SDS011;49208;50.874;6.466;2023-02-22T07:57:47;15.82;;;8.07;;
63114;SDS011;49208;50.874;6.466;2023-02-22T08:00:14;16.73;;;9.57;;
63114;SDS011;49208;50.874;6.466;2023-02-22T08:02:45;13.95;;;7.03;;
63114;SDS011;49208;50.874;6.466;2023-02-22T08:05:12;13.73;;;6.50;;
63114;SDS011;49208;50.874;6.466;2023-02-22T08:07:38;20.45;;;8.20;;
63114;SDS011;49208;50.874;6.466;2023-02-22T08:10:04;14.93;;;6.82;;
63114;SDS011;49208;50.874;6.466;2023-02-22T08:12:35;13.68;;;7.18;;
63114;SDS011;49208;50.874;6.466;2023-02-22T08:15:01;10.63;;;6.28;;
63114;SDS011;49208;50.874;6.466;2023-02-22T08:17:31;12.00;;;6.20;;
63114;SDS011;49208;50.874;6.466;2023-02-22T08:19:56;15.77;;;7.88;;
63114;SDS011;49208;50.874;6.466;2023-02-22T08:22:22;16.17;;;8.15;;
63114;SDS011;49208;50.874;6.466;2023-02-22T08:24:48;13.68;;;7.55;;
63114;SDS011;49208;50.874;6.466;2023-02-22T08:27:21;17.73;;;7.00;;
63114;SDS011;49208;50.874;6.466;2023-02-22T08:29:47;15.32;;;6.50;;
63114;SDS011;49208;50.874;6.466;2023-02-22T08:32:13;11.90;;;6.80;;
63114;SDS011;49208;50.874;6.466;2023-02-22T08:34:41;14.63;;;6.63;;
63114;SDS011;49208;50.874;6.466;2023-02-22T08:37:07;12.88;;;7.47;;
63114;SDS011;49208;50.874;6.466;2023-02-22T08:39:32;10.20;;;6.00;;
63114;SDS011;49208;50.874;6.466;2023-02-22T08:41:57;14.30;;;7.28;;
63114;SDS011;49208;50.874;6.466;2023-02-22T08:44:23;11.60;;;6.40;;
63114;SDS011;49208;50.874;6.466;2023-02-22T08:46:48;12.38;;;6.22;;
63114;SDS011;49208;50.874;6.466;2023-02-22T08:49:13;11.98;;;6.38;;
63114;SDS011;49208;50.874;6.466;2023-02-22T08:51:39;19.77;;;6.93;;
63114;SDS011;49208;50.874;6.466;2023-02-22T08:54:04;13.15;;;6.97;;
63114;SDS011;49208;50.874;6.466;2023-02-22T08:56:31;12.90;;;6.57;;
63114;SDS011;49208;50.874;6.466;2023-02-22T08:58:57;11.52;;;7.25;;
63114;SDS011;49208;50.874;6.466;2023-02-22T09:01:23;13.90;;;6.78;;
63114;SDS011;49208;50.874;6.466;2023-02-22T09:03:48;12.20;;;7.10;;
63114;SDS011;49208;50.874;6.466;2023-02-22T09:06:14;12.65;;;6.65;;
63114;SDS011;49208;50.874;6.466;2023-02-22T09:08:40;13.13;;;7.00;;
63114;SDS011;49208;50.874;6.466;2023-02-22T09:11:05;11.15;;;6.75;;
63114;SDS011;49208;50.874;6.466;2023-02-22T09:13:31;14.27;;;6.72;;
63114;SDS011;49208;50.874;6.466;2023-02-22T09:15:56;12.88;;;6.75;;
63114;SDS011;49208;50.874;6.466;2023-02-22T09:18:22;13.32;;;6.45;;
63114;SDS011;49208;50.874;6.466;2023-02-22T09:20:47;14.25;;;7.63;;
63114;SDS011;49208;50.874;6.466;2023-02-22T09:23:12;11.98;;;6.65;;
63114;SDS011;49208;50.874;6.466;2023-02-22T09:25:38;13.40;;;6.53;;
63114;SDS011;49208;50.874;6.466;2023-02-22T09:28:05;12.77;;;6.75;;
63114;SDS011;49208;50.874;6.466;2023-02-22T09:30:34;20.85;;;9.48;;
63114;SDS011;49208;50.874;6.466;2023-02-22T09:33:04;21.83;;;8.45;;
63114;SDS011;49208;50.874;6.466;2023-02-22T09:35:34;22.85;;;8.63;;
63114;SDS011;49208;50.874;6.466;2023-02-22T09:38:00;23.98;;;9.65;;
63114;SDS011;49208;50.874;6.466;2023-02-22T09:40:31;16.38;;;7.55;;
63114;SDS011;49208;50.874;6.466;2023-02-22T09:43:09;37.97;;;8.55;;
63114;SDS011;49208;50.874;6.466;2023-02-22T09:51:25;22.50;;;9.02;;
63114;SDS011;49208;50.874;6.466;2023-02-22T09:53:54;16.08;;;7.60;;
63114;SDS011;49208;50.874;6.466;2023-02-22T09:56:23;19.58;;;8.38;;
63114;SDS011;49208;50.874;6.466;2023-02-22T09:58:53;19.70;;;8.70;;
63114;SDS011;49208;50.874;6.466;2023-02-22T10:01:28;18.63;;;8.23;;
63114;SDS011;49208;50.874;6.466;2023-02-22T10:06:49;21.75;;;7.82;;
63114;SDS011;49208;50.874;6.466;2023-02-22T10:09:50;13.40;;;6.53;;
63114;SDS011;49208;50.874;6.466;2023-02-22T10:18:12;12.85;;;5.85;;
63114;SDS011;49208;50.874;6.466;2023-02-22T10:20:56;17.63;;;7.53;;
63114;SDS011;49208;50.874;6.466;2023-02-22T10:23:35;16.63;;;8.38;;
63114;SDS011;49208;50.874;6.466;2023-02-22T10:26:13;20.25;;;8.43;;
63114;SDS011;49208;50.874;6.466;2023-02-22T10:31:20;19.25;;;7.28;;
63114;SDS011;49208;50.874;6.466;2023-02-22T10:33:56;18.98;;;7.18;;
63114;SDS011;49208;50.874;6.466;2023-02-22T10:36:25;19.58;;;7.63;;
63114;SDS011;49208;50.874;6.466;2023-02-22T10:38:58;22.57;;;7.40;;
63114;SDS011;49208;50.874;6.466;2023-02-22T10:41:33;15.85;;;7.57;;
63114;SDS011;49208;50.874;6.466;2023-02-22T10:44:02;16.50;;;7.43;;
63114;SDS011;49208;50.874;6.466;2023-02-22T10:46:28;29.45;;;9.15;;
63114;SDS011;49208;50.874;6.466;2023-02-22T10:48:56;19.27;;;9.18;;
63114;SDS011;49208;50.874;6.466;2023-02-22T10:51:28;22.83;;;7.55;;
63114;SDS011;49208;50.874;6.466;2023-02-22T10:54:00;18.05;;;7.35;;
63114;SDS011;49208;50.874;6.466;2023-02-22T10:56:47;25.92;;;8.73;;
63114;SDS011;49208;50.874;6.466;2023-02-22T11:01:52;17.40;;;7.03;;
63114;SDS011;49208;50.874;6.466;2023-02-22T11:04:18;15.70;;;6.35;;
63114;SDS011;49208;50.874;6.466;2023-02-22T11:06:49;11.30;;;5.35;;
63114;SDS011;49208;50.874;6.466;2023-02-22T11:09:52;8.25;;;4.57;;
63114;SDS011;49208;50.874;6.466;2023-02-22T11:14:56;9.85;;;4.13;;
63114;SDS011;49208;50.874;6.466;2023-02-22T11:17:29;23.00;;;7.07;;
63114;SDS011;49208;50.874;6.466;2023-02-22T11:19:56;17.27;;;6.80;;
63114;SDS011;49208;50.874;6.466;2023-02-22T11:22:44;10.55;;;5.95;;
63114;SDS011;49208;50.874;6.466;2023-02-22T11:25:16;21.13;;;6.85;;
63114;SDS011;49208;50.874;6.466;2023-02-22T11:27:44;8.38;;;4.53;;
63114;SDS011;49208;50.874;6.466;2023-02-22T11:30:21;8.82;;;5.10;;
63114;SDS011;49208;50.874;6.466;2023-02-22T11:32:52;10.93;;;6.03;;
63114;SDS011;49208;50.874;6.466;2023-02-22T11:35:48;13.23;;;4.63;;
63114;SDS011;49208;50.874;6.466;2023-02-22T11:38:25;15.80;;;6.22;;
63114;SDS011;49208;50.874;6.466;2023-02-22T11:41:06;16.85;;;7.65;;
63114;SDS011;49208;50.874;6.466;2023-02-22T11:43:47;21.92;;;7.28;;
63114;SDS011;49208;50.874;6.466;2023-02-22T11:49:12;18.50;;;7.00;;
63114;SDS011;49208;50.874;6.466;2023-02-22T12:08:07;18.38;;;6.65;;
63114;SDS011;49208;50.874;6.466;2023-02-22T12:10:56;14.75;;;5.35;;
63114;SDS011;49208;50.874;6.466;2023-02-22T12:16:26;14.80;;;6.13;;
63114;SDS011;49208;50.874;6.466;2023-02-22T12:19:14;19.58;;;6.45;;
63114;SDS011;49208;50.874;6.466;2023-02-22T12:21:47;15.40;;;6.45;;
63114;SDS011;49208;50.874;6.466;2023-02-22T12:24:19;11.98;;;5.57;;
63114;SDS011;49208;50.874;6.466;2023-02-22T12:26:49;13.80;;;5.35;;
63114;SDS011;49208;50.874;6.466;2023-02-22T12:32:03;11.93;;;5.40;;
63114;SDS011;49208;50.874;6.466;2023-02-22T12:34:54;13.57;;;5.85;;
63114;SDS011;49208;50.874;6.466;2023-02-22T12:37:32;9.02;;;5.03;;
63114;SDS011;49208;50.874;6.466;2023-02-22T12:40:13;12.30;;;5.55;;
63114;SDS011;49208;50.874;6.466;2023-02-22T12:43:01;14.75;;;6.47;;
63114;SDS011;49208;50.874;6.466;2023-02-22T12:53:38;14.18;;;6.07;;
63114;SDS011;49208;50.874;6.466;2023-02-22T12:56:19;15.40;;;6.07;;
63114;SDS011;49208;50.874;6.466;2023-02-22T12:59:10;13.00;;;7.00;;
63114;SDS011;49208;50.874;6.466;2023-02-22T13:01:58;11.32;;;6.88;;
63114;SDS011;49208;50.874;6.466;2023-02-22T13:04:28;11.48;;;6.20;;
63114;SDS011;49208;50.874;6.466;2023-02-22T13:17:49;11.50;;;6.55;;
63114;SDS011;49208;50.874;6.466;2023-02-22T13:23:07;9.60;;;6.38;;
63114;SDS011;49208;50.874;6.466;2023-02-22T13:25:49;10.70;;;7.28;;
63114;SDS011;49208;50.874;6.466;2023-02-22T13:36:21;11.77;;;7.32;;
63114;SDS011;49208;50.874;6.466;2023-02-22T13:44:56;12.27;;;7.63;;
63114;SDS011;49208;50.874;6.466;2023-02-22T13:47:50;12.10;;;7.57;;
63114;SDS011;49208;50.874;6.466;2023-02-22T13:50:32;11.77;;;7.75;;
63114;SDS011;49208;50.874;6.466;2023-02-22T13:52:59;11.80;;;7.55;;
63114;SDS011;49208;50.874;6.466;2023-02-22T13:55:32;14.00;;;8.15;;
63114;SDS011;49208;50.874;6.466;2023-02-22T13:58:03;11.32;;;7.63;;
63114;SDS011;49208;50.874;6.466;2023-02-22T14:08:03;13.05;;;8.63;;
63114;SDS011;49208;50.874;6.466;2023-02-22T14:10:49;10.83;;;7.47;;
63114;SDS011;49208;50.874;6.466;2023-02-22T14:13:22;14.32;;;7.97;;
63114;SDS011;49208;50.874;6.466;2023-02-22T14:26:10;11.90;;;7.30;;
63114;SDS011;49208;50.874;6.466;2023-02-22T14:31:13;13.50;;;8.25;;
63114;SDS011;49208;50.874;6.466;2023-02-22T14:36:26;12.68;;;8.13;;
63114;SDS011;49208;50.874;6.466;2023-02-22T14:38:57;11.52;;;7.60;;
63114;SDS011;49208;50.874;6.466;2023-02-22T14:41:59;15.13;;;8.18;;
63114;SDS011;49208;50.874;6.466;2023-02-22T14:44:36;13.80;;;8.30;;
63114;SDS011;49208;50.874;6.466;2023-02-22T14:47:05;13.23;;;8.43;;
63114;SDS011;49208;50.874;6.466;2023-02-22T14:49:34;14.10;;;8.15;;
63114;SDS011;49208;50.874;6.466;2023-02-22T14:52:05;13.38;;;7.80;;
63114;SDS011;49208;50.874;6.466;2023-02-22T14:57:45;13.15;;;7.47;;
63114;SDS011;49208;50.874;6.466;2023-02-22T15:00:17;14.02;;;8.43;;
63114;SDS011;49208;50.874;6.466;2023-02-22T15:02:54;11.63;;;8.02;;
63114;SDS011;49208;50.874;6.466;2023-02-22T15:05:23;12.60;;;7.25;;
63114;SDS011;49208;50.874;6.466;2023-02-22T15:07:59;12.15;;;7.28;;
63114;SDS011;49208;50.874;6.466;2023-02-22T15:13:03;12.82;;;8.13;;
63114;SDS011;49208;50.874;6.466;2023-02-22T15:15:47;13.07;;;7.40;;
63114;SDS011;49208;50.874;6.466;2023-02-22T15:18:25;11.57;;;7.93;;
63114;SDS011;49208;50.874;6.466;2023-02-22T15:21:02;14.50;;;6.90;;
63114;SDS011;49208;50.874;6.466;2023-02-22T15:23:52;10.25;;;6.55;;
63114;SDS011;49208;50.874;6.466;2023-02-22T15:26:34;15.88;;;7.60;;
63114;SDS011;49208;50.874;6.466;2023-02-22T15:29:01;10.20;;;6.78;;
63114;SDS011;49208;50.874;6.466;2023-02-22T15:31:37;13.80;;;7.65;;
63114;SDS011;49208;50.874;6.466;2023-02-22T15:36:46;11.48;;;6.80;;
63114;SDS011;49208;50.874;6.466;2023-02-22T15:39:22;12.23;;;8.27;;
63114;SDS011;49208;50.874;6.466;2023-02-22T15:44:46;11.48;;;7.22;;
63114;SDS011;49208;50.874;6.466;2023-02-22T15:47:17;12.70;;;8.32;;
63114;SDS011;49208;50.874;6.466;2023-02-22T15:49:44;14.63;;;7.97;;
63114;SDS011;49208;50.874;6.466;2023-02-22T15:52:20;14.25;;;8.48;;
63114;SDS011;49208;50.874;6.466;2023-02-22T15:54:50;12.27;;;7.57;;
63114;SDS011;49208;50.874;6.466;2023-02-22T15:57:17;12.17;;;7.80;;
63114;SDS011;49208;50.874;6.466;2023-02-22T15:59:50;14.57;;;8.63;;
63114;SDS011;49208;50.874;6.466;2023-02-22T16:02:59;13.60;;;8.30;;
63114;SDS011;49208;50.874;6.466;2023-02-22T16:05:07;14.07;;;8.98;;
63114;SDS011;49208;50.874;6.466;2023-02-22T16:07:39;16.05;;;9.23;;
63114;SDS011;49208;50.874;6.466;2023-02-22T16:10:19;14.32;;;7.75;;
63114;SDS011;49208;50.874;6.466;2023-02-22T16:12:48;12.20;;;7.93;;
63114;SDS011;49208;50.874;6.466;2023-02-22T16:15:16;14.52;;;8.88;;
63114;SDS011;49208;50.874;6.466;2023-02-22T16:17:42;13.60;;;9.48;;
63114;SDS011;49208;50.874;6.466;2023-02-22T16:22:37;14.45;;;9.13;;
63114;SDS011;49208;50.874;6.466;2023-02-22T16:25:11;13.23;;;8.35;;
63114;SDS011;49208;50.874;6.466;2023-02-22T16:27:41;13.02;;;9.18;;
63114;SDS011;49208;50.874;6.466;2023-02-22T16:30:32;15.93;;;8.45;;
63114;SDS011;49208;50.874;6.466;2023-02-22T16:33:02;14.25;;;7.82;;
63114;SDS011;49208;50.874;6.466;2023-02-22T16:35:29;14.98;;;9.45;;
63114;SDS011;49208;50.874;6.466;2023-02-22T16:38:03;15.13;;;8.90;;
63114;SDS011;49208;50.874;6.466;2023-02-22T16:40:33;14.68;;;8.60;;
63114;SDS011;49208;50.874;6.466;2023-02-22T16:43:05;13.65;;;8.82;;
63114;SDS011;49208;50.874;6.466;2023-02-22T16:45:31;14.68;;;8.55;;
63114;SDS011;49208;50.874;6.466;2023-02-22T16:48:00;14.80;;;9.50;;
63114;SDS011;49208;50.874;6.466;2023-02-22T16:50:35;15.38;;;8.65;;
63114;SDS011;49208;50.874;6.466;2023-02-22T16:53:00;12.20;;;8.27;;
63114;SDS011;49208;50.874;6.466;2023-02-22T16:55:25;16.63;;;10.02;;
63114;SDS011;49208;50.874;6.466;2023-02-22T16:57:52;14.10;;;8.85;;
63114;SDS011;49208;50.874;6.466;2023-02-22T17:00:21;16.00;;;9.35;;
63114;SDS011;49208;50.874;6.466;2023-02-22T17:02:58;16.20;;;9.55;;
63114;SDS011;49208;50.874;6.466;2023-02-22T17:05:28;16.60;;;10.77;;
63114;SDS011;49208;50.874;6.466;2023-02-22T17:07:54;18.35;;;10.57;;
63114;SDS011;49208;50.874;6.466;2023-02-22T17:10:19;17.15;;;10.00;;
63114;SDS011;49208;50.874;6.466;2023-02-22T17:12:46;16.73;;;9.83;;
63114;SDS011;49208;50.874;6.466;2023-02-22T17:15:19;15.43;;;9.68;;
63114;SDS011;49208;50.874;6.466;2023-02-22T17:17:47;16.83;;;10.23;;
63114;SDS011;49208;50.874;6.466;2023-02-22T17:22:39;16.88;;;10.57;;
63114;SDS011;49208;50.874;6.466;2023-02-22T17:25:21;17.80;;;11.00;;
63114;SDS011;49208;50.874;6.466;2023-02-22T17:27:49;17.63;;;10.13;;
63114;SDS011;49208;50.874;6.466;2023-02-22T17:30:15;17.88;;;10.95;;
63114;SDS011;49208;50.874;6.466;2023-02-22T17:32:41;19.13;;;11.23;;
63114;SDS011;49208;50.874;6.466;2023-02-22T17:35:07;19.42;;;11.45;;
63114;SDS011;49208;50.874;6.466;2023-02-22T17:37:32;23.13;;;13.32;;
63114;SDS011;49208;50.874;6.466;2023-02-22T17:39:58;20.00;;;12.30;;
63114;SDS011;49208;50.874;6.466;2023-02-22T17:42:23;19.58;;;12.45;;
63114;SDS011;49208;50.874;6.466;2023-02-22T17:44:48;19.67;;;11.68;;
63114;SDS011;49208;50.874;6.466;2023-02-22T17:47:14;17.95;;;10.15;;
63114;SDS011;49208;50.874;6.466;2023-02-22T17:49:39;18.77;;;12.07;;
63114;SDS011;49208;50.874;6.466;2023-02-22T17:52:05;20.23;;;12.55;;
63114;SDS011;49208;50.874;6.466;2023-02-22T17:54:30;17.67;;;10.95;;
63114;SDS011;49208;50.874;6.466;2023-02-22T17:56:58;19.73;;;12.27;;
63114;SDS011;49208;50.874;6.466;2023-02-22T17:59:24;20.10;;;12.38;;
63114;SDS011;49208;50.874;6.466;2023-02-22T18:01:49;19.15;;;11.88;;
63114;SDS011;49208;50.874;6.466;2023-02-22T18:04:17;21.13;;;12.52;;
63114;SDS011;49208;50.874;6.466;2023-02-22T18:06:43;19.85;;;12.55;;
63114;SDS011;49208;50.874;6.466;2023-02-22T18:09:09;20.95;;;13.07;;
63114;SDS011;49208;50.874;6.466;2023-02-22T18:11:35;19.90;;;12.82;;
63114;SDS011;49208;50.874;6.466;2023-02-22T18:14:01;16.98;;;12.25;;
63114;SDS011;49208;50.874;6.466;2023-02-22T18:16:26;22.35;;;14.18;;
63114;SDS011;49208;50.874;6.466;2023-02-22T18:18:52;22.83;;;13.93;;
63114;SDS011;49208;50.874;6.466;2023-02-22T18:21:19;22.42;;;14.18;;
63114;SDS011;49208;50.874;6.466;2023-02-22T18:23:44;19.85;;;13.25;;
63114;SDS011;49208;50.874;6.466;2023-02-22T18:26:16;22.23;;;13.77;;
63114;SDS011;49208;50.874;6.466;2023-02-22T18:28:44;20.48;;;14.25;;
63114;SDS011;49208;50.874;6.466;2023-02-22T18:31:13;20.08;;;12.50;;
63114;SDS011;49208;50.874;6.466;2023-02-22T18:33:40;21.35;;;15.02;;
63114;SDS011;49208;50.874;6.466;2023-02-22T18:36:07;23.98;;;14.27;;
63114;SDS011;49208;50.874;6.466;2023-02-22T18:38:35;23.48;;;15.27;;
63114;SDS011;49208;50.874;6.466;2023-02-22T18:41:06;20.98;;;14.55;;
63114;SDS011;49208;50.874;6.466;2023-02-22T18:46:18;23.50;;;16.67;;
63114;SDS011;49208;50.874;6.466;2023-02-22T18:48:45;25.17;;;16.50;;
63114;SDS011;49208;50.874;6.466;2023-02-22T18:51:13;23.40;;;15.57;;
63114;SDS011;49208;50.874;6.466;2023-02-22T18:53:40;23.30;;;15.93;;
63114;SDS011;49208;50.874;6.466;2023-02-22T18:56:12;25.27;;;16.73;;
63114;SDS011;49208;50.874;6.466;2023-02-22T18:58:39;25.65;;;16.25;;
63114;SDS011;49208;50.874;6.466;2023-02-22T19:01:07;28.98;;;17.25;;
63114;SDS011;49208;50.874;6.466;2023-02-22T19:03:38;29.50;;;18.55;;
63114;SDS011;49208;50.874;6.466;2023-02-22T19:06:04;29.23;;;18.45;;
63114;SDS011;49208;50.874;6.466;2023-02-22T19:08:35;25.45;;;16.95;;
63114;SDS011;49208;50.874;6.466;2023-02-22T19:11:12;26.50;;;17.70;;
63114;SDS011;49208;50.874;6.466;2023-02-22T19:13:42;30.83;;;17.67;;
63114;SDS011;49208;50.874;6.466;2023-02-22T19:16:12;28.75;;;17.65;;
63114;SDS011;49208;50.874;6.466;2023-02-22T19:18:38;36.33;;;20.90;;
63114;SDS011;49208;50.874;6.466;2023-02-22T19:21:04;32.10;;;20.15;;
63114;SDS011;49208;50.874;6.466;2023-02-22T19:23:36;28.50;;;19.08;;
63114;SDS011;49208;50.874;6.466;2023-02-22T19:26:09;29.73;;;20.10;;
63114;SDS011;49208;50.874;6.466;2023-02-22T19:28:35;32.05;;;20.38;;
63114;SDS011;49208;50.874;6.466;2023-02-22T19:31:13;31.20;;;20.42;;
63114;SDS011;49208;50.874;6.466;2023-02-22T19:33:40;34.65;;;22.02;;
63114;SDS011;49208;50.874;6.466;2023-02-22T19:36:05;31.90;;;19.88;;
63114;SDS011;49208;50.874;6.466;2023-02-22T19:38:32;33.75;;;20.95;;
63114;SDS011;49208;50.874;6.466;2023-02-22T19:40:57;30.05;;;20.98;;
63114;SDS011;49208;50.874;6.466;2023-02-22T19:43:22;32.15;;;19.60;;
63114;SDS011;49208;50.874;6.466;2023-02-22T19:45:48;36.08;;;21.10;;
63114;SDS011;49208;50.874;6.466;2023-02-22T19:48:13;32.25;;;19.50;;
63114;SDS011;49208;50.874;6.466;2023-02-22T19:50:39;30.55;;;19.85;;
63114;SDS011;49208;50.874;6.466;2023-02-22T19:53:13;33.53;;;21.13;;
63114;SDS011;49208;50.874;6.466;2023-02-22T19:55:41;35.80;;;22.30;;
63114;SDS011;49208;50.874;6.466;2023-02-22T19:58:07;31.88;;;21.38;;
63114;SDS011;49208;50.874;6.466;2023-02-22T20:00:33;34.78;;;20.95;;
63114;SDS011;49208;50.874;6.466;2023-02-22T20:02:59;32.60;;;22.60;;
63114;SDS011;49208;50.874;6.466;2023-02-22T20:05:36;29.70;;;20.67;;
63114;SDS011;49208;50.874;6.466;2023-02-22T20:08:03;34.60;;;22.27;;
63114;SDS011;49208;50.874;6.466;2023-02-22T20:10:29;37.05;;;22.55;;
63114;SDS011;49208;50.874;6.466;2023-02-22T20:12:54;35.45;;;23.02;;
63114;SDS011;49208;50.874;6.466;2023-02-22T20:15:20;32.05;;;21.33;;
63114;SDS011;49208;50.874;6.466;2023-02-22T20:20:14;33.03;;;23.92;;
63114;SDS011;49208;50.874;6.466;2023-02-22T20:22:40;34.30;;;23.08;;
63114;SDS011;49208;50.874;6.466;2023-02-22T20:25:06;37.92;;;23.08;;
63114;SDS011;49208;50.874;6.466;2023-02-22T20:27:31;35.85;;;23.65;;
63114;SDS011;49208;50.874;6.466;2023-02-22T20:29:58;33.67;;;23.45;;
63114;SDS011;49208;50.874;6.466;2023-02-22T20:32:24;36.97;;;23.98;;
63114;SDS011;49208;50.874;6.466;2023-02-22T20:34:51;39.35;;;22.70;;
63114;SDS011;49208;50.874;6.466;2023-02-22T20:37:17;37.45;;;23.05;;
63114;SDS011;49208;50.874;6.466;2023-02-22T20:39:42;36.65;;;24.80;;
63114;SDS011;49208;50.874;6.466;2023-02-22T20:42:08;35.90;;;23.50;;
63114;SDS011;49208;50.874;6.466;2023-02-22T20:44:35;39.67;;;24.75;;
63114;SDS011;49208;50.874;6.466;2023-02-22T20:47:01;37.72;;;24.08;;
63114;SDS011;49208;50.874;6.466;2023-02-22T20:49:27;36.97;;;23.10;;
63114;SDS011;49208;50.874;6.466;2023-02-22T20:51:53;37.90;;;23.55;;
63114;SDS011;49208;50.874;6.466;2023-02-22T20:54:18;33.03;;;23.30;;
63114;SDS011;49208;50.874;6.466;2023-02-22T20:56:44;41.45;;;24.70;;
63114;SDS011;49208;50.874;6.466;2023-02-22T20:59:11;37.17;;;23.90;;
63114;SDS011;49208;50.874;6.466;2023-02-22T21:01:37;39.33;;;25.75;;
63114;SDS011;49208;50.874;6.466;2023-02-22T21:04:04;36.92;;;23.60;;
63114;SDS011;49208;50.874;6.466;2023-02-22T21:06:31;36.88;;;22.83;;
63114;SDS011;49208;50.874;6.466;2023-02-22T21:08:59;40.45;;;24.35;;
63114;SDS011;49208;50.874;6.466;2023-02-22T21:11:27;34.60;;;23.90;;
63114;SDS011;49208;50.874;6.466;2023-02-22T21:13:54;37.53;;;24.40;;
63114;SDS011;49208;50.874;6.466;2023-02-22T21:16:21;35.63;;;23.92;;
63114;SDS011;49208;50.874;6.466;2023-02-22T21:18:52;40.35;;;24.92;;
63114;SDS011;49208;50.874;6.466;2023-02-22T21:21:19;37.03;;;25.23;;
63114;SDS011;49208;50.874;6.466;2023-02-22T21:23:47;40.75;;;25.25;;
63114;SDS011;49208;50.874;6.466;2023-02-22T21:26:14;38.58;;;24.65;;
63114;SDS011;49208;50.874;6.466;2023-02-22T21:28:42;41.72;;;25.98;;
63114;SDS011;49208;50.874;6.466;2023-02-22T21:31:08;37.55;;;25.10;;
63114;SDS011;49208;50.874;6.466;2023-02-22T21:33:36;41.38;;;27.45;;
63114;SDS011;49208;50.874;6.466;2023-02-22T21:36:03;41.30;;;25.35;;
63114;SDS011;49208;50.874;6.466;2023-02-22T21:38:35;41.92;;;25.52;;
63114;SDS011;49208;50.874;6.466;2023-02-22T21:41:14;41.05;;;27.65;;
63114;SDS011;49208;50.874;6.466;2023-02-22T21:43:41;40.08;;;25.83;;
63114;SDS011;49208;50.874;6.466;2023-02-22T21:46:07;43.05;;;26.27;;
63114;SDS011;49208;50.874;6.466;2023-02-22T21:48:40;39.58;;;25.73;;
63114;SDS011;49208;50.874;6.466;2023-02-22T21:51:19;44.65;;;25.63;;
63114;SDS011;49208;50.874;6.466;2023-02-22T21:53:49;44.60;;;27.40;;
63114;SDS011;49208;50.874;6.466;2023-02-22T21:56:18;37.47;;;25.48;;
63114;SDS011;49208;50.874;6.466;2023-02-22T21:58:52;41.50;;;27.58;;
63114;SDS011;49208;50.874;6.466;2023-02-22T22:01:29;42.33;;;26.48;;
63114;SDS011;49208;50.874;6.466;2023-02-22T22:03:58;43.88;;;26.80;;
63114;SDS011;49208;50.874;6.466;2023-02-22T22:06:24;38.50;;;23.77;;
63114;SDS011;49208;50.874;6.466;2023-02-22T22:08:52;36.42;;;24.45;;
63114;SDS011;49208;50.874;6.466;2023-02-22T22:11:20;39.53;;;25.27;;
63114;SDS011;49208;50.874;6.466;2023-02-22T22:13:46;42.05;;;26.08;;
63114;SDS011;49208;50.874;6.466;2023-02-22T22:16:14;38.47;;;25.27;;
63114;SDS011;49208;50.874;6.466;2023-02-22T22:18:42;36.53;;;23.45;;
63114;SDS011;49208;50.874;6.466;2023-02-22T22:21:13;42.70;;;25.20;;
63114;SDS011;49208;50.874;6.466;2023-02-22T22:23:41;40.45;;;25.20;;
63114;SDS011;49208;50.874;6.466;2023-02-22T22:26:11;34.83;;;22.77;;
63114;SDS011;49208;50.874;6.466;2023-02-22T22:28:38;39.00;;;26.45;;
63114;SDS011;49208;50.874;6.466;2023-02-22T22:31:06;35.53;;;22.67;;
63114;SDS011;49208;50.874;6.466;2023-02-22T22:33:33;38.72;;;23.88;;
63114;SDS011;49208;50.874;6.466;2023-02-22T22:35:59;37.20;;;24.88;;
63114;SDS011;49208;50.874;6.466;2023-02-22T22:38:25;38.55;;;24.08;;
63114;SDS011;49208;50.874;6.466;2023-02-22T22:40:51;39.33;;;25.80;;
63114;SDS011;49208;50.874;6.466;2023-02-22T22:43:17;41.30;;;26.13;;
63114;SDS011;49208;50.874;6.466;2023-02-22T22:45:44;39.85;;;25.73;;
63114;SDS011;49208;50.874;6.466;2023-02-22T22:48:10;36.90;;;24.15;;
63114;SDS011;49208;50.874;6.466;2023-02-22T22:50:41;42.28;;;25.60;;
63114;SDS011;49208;50.874;6.466;2023-02-22T22:53:11;36.30;;;24.40;;
63114;SDS011;49208;50.874;6.466;2023-02-22T22:55:38;37.90;;;24.02;;
63114;SDS011;49208;50.874;6.466;2023-02-22T22:58:05;40.35;;;26.70;;
